Time;durP1;ratioP1;P1;durP2;ratioP2;P2;SDS_P1;SDS_P2;PMS_P1;PMS_P2;Temp;Humidity;BMP_temperature;BMP_pressure;BME280_temperature;BME280_humidity;BME280_pressure;Samples;Min_cycle;Max_cycle;Signal;HPM_P1;HPM_P2
2023/04/02 00:00:28;;;;;;;0.43;0.40;;;;;;;;;;5092866;28;20028;-84
2023/04/02 00:02:56;;;;;;;1.38;0.30;;;;;;;;;;5094004;28;20038;-86
2023/04/02 00:05:24;;;;;;;1.95;0.20;;;;;;;;;;5092421;28;20043;-84
2023/04/02 00:07:51;;;;;;;1.00;0.38;;;;;;;;;;5093896;28;20016;-84
2023/04/02 00:10:30;;;;;;;0.77;0.32;;;;;;;;;;5106188;28;20032;-82
2023/04/02 00:13:00;;;;;;;0.95;0.32;;;;;;;;;;5107649;28;20020;-87
2023/04/02 00:15:26;;;;;;;;;;;;;;;;;;5093157;28;20024;-88
2023/04/02 00:17:52;;;;;;;1.00;0.35;;;;;;;;;;5094436;28;19910;-88
2023/04/02 00:20:19;;;;;;;0.40;0.30;;;;;;;;;;5093124;28;20028;-82
2023/04/02 00:22:45;;;;;;;0.82;0.32;;;;;;;;;;5094424;28;20122;-86
2023/04/02 00:25:13;;;;;;;1.77;0.40;;;;;;;;;;5094486;28;20024;-80
2023/04/02 00:27:39;;;;;;;0.47;0.17;;;;;;;;;;5096667;28;20481;-85
2023/04/02 00:30:06;;;;;;;0.57;0.40;;;;;;;;;;5095010;28;20095;-85
2023/04/02 00:32:33;;;;;;;0.60;0.30;;;;;;;;;;5097962;28;20032;-83
2023/04/02 00:35:00;;;;;;;0.90;0.35;;;;;;;;;;5101723;28;20016;-83
2023/04/02 00:37:38;;;;;;;1.27;0.30;;;;;;;;;;5100049;28;20035;-81
2023/04/02 00:40:08;;;;;;;0.30;0.20;;;;;;;;;;5099916;28;20146;-82
2023/04/02 00:42:39;;;;;;;0.57;0.30;;;;;;;;;;5109131;28;20016;-81
2023/04/02 00:45:06;;;;;;;0.70;0.28;;;;;;;;;;5121915;28;20031;-81
2023/04/02 00:47:34;;;;;;;0.90;0.30;;;;;;;;;;5115875;28;20217;-82
2023/04/02 00:50:21;;;;;;;1.38;0.30;;;;;;;;;;5112865;28;20059;-83
2023/04/02 00:52:48;;;;;;;0.38;0.30;;;;;;;;;;5113043;28;20035;-84
2023/04/02 00:55:22;;;;;;;0.77;0.30;;;;;;;;;;5112775;28;20030;-75
2023/04/02 00:57:49;;;;;;;0.40;0.30;;;;;;;;;;5106126;28;20031;-82
2023/04/02 01:00:23;;;;;;;0.40;0.28;;;;;;;;;;5102995;28;20111;-76
2023/04/02 01:03:09;;;;;;;0.40;0.13;;;;;;;;;;5113327;28;20023;-84
2023/04/02 01:05:35;;;;;;;0.52;0.20;;;;;;;;;;5103271;28;20028;-85
2023/04/02 01:08:26;;;;;;;2.10;0.30;;;;;;;;;;5095843;28;20099;-83
2023/04/02 01:11:01;;;;;;;0.35;0.22;;;;;;;;;;5102056;28;20109;-83
2023/04/02 01:13:32;;;;;;;0.95;0.22;;;;;;;;;;5101622;28;20027;-85
2023/04/02 01:16:03;;;;;;;0.73;0.40;;;;;;;;;;5099552;28;20016;-82
2023/04/02 01:18:35;;;;;;;1.70;0.30;;;;;;;;;;5099626;28;20354;-82
2023/04/02 01:21:16;;;;;;;0.20;0.20;;;;;;;;;;5100957;28;20035;-85
2023/04/02 01:23:51;;;;;;;0.65;0.20;;;;;;;;;;5101588;28;20023;-85
2023/04/02 01:26:36;;;;;;;1.10;0.20;;;;;;;;;;5099873;28;20022;-81
2023/04/02 01:29:08;;;;;;;0.82;0.20;;;;;;;;;;5101320;28;20131;-84
2023/04/02 01:31:34;;;;;;;2.35;0.47;;;;;;;;;;5100708;28;20148;-81
2023/04/02 01:34:02;;;;;;;1.25;0.30;;;;;;;;;;5100067;28;20047;-85
2023/04/02 01:36:34;;;;;;;1.10;0.20;;;;;;;;;;5099359;28;20476;-84
2023/04/02 01:39:01;;;;;;;0.60;0.30;;;;;;;;;;5101077;28;20035;-84
2023/04/02 01:41:30;;;;;;;0.38;0.30;;;;;;;;;;5096989;28;20115;-82
2023/04/02 01:44:16;;;;;;;0.20;0.20;;;;;;;;;;5100486;28;20020;-84
2023/04/02 01:46:43;;;;;;;0.65;0.20;;;;;;;;;;5100723;28;20024;-84
2023/04/02 01:49:14;;;;;;;2.05;0.30;;;;;;;;;;5100405;28;20043;-82
2023/04/02 01:51:45;;;;;;;1.08;0.20;;;;;;;;;;5099647;28;20099;-84
2023/04/02 01:54:12;;;;;;;0.47;0.25;;;;;;;;;;5099743;28;20024;-84
2023/04/02 01:56:38;;;;;;;1.10;0.40;;;;;;;;;;5100936;28;20020;-86
2023/04/02 01:59:07;;;;;;;1.58;0.20;;;;;;;;;;5100426;28;20428;-82
2023/04/02 02:01:50;;;;;;;0.10;0.10;;;;;;;;;;5100873;28;20020;-85
2023/04/02 02:04:17;;;;;;;0.60;0.20;;;;;;;;;;5099290;28;20016;-80
2023/04/02 02:06:43;;;;;;;0.30;0.30;;;;;;;;;;5099398;28;20027;-87
2023/04/02 02:09:14;;;;;;;0.20;0.20;;;;;;;;;;5099375;28;20032;-85
2023/04/02 02:11:40;;;;;;;0.35;0.20;;;;;;;;;;5100459;28;20031;-87
2023/04/02 02:14:14;;;;;;;1.42;0.22;;;;;;;;;;5101174;28;20027;-85
2023/04/02 02:16:40;;;;;;;0.73;0.20;;;;;;;;;;5099476;28;20012;-86
2023/04/02 02:19:07;;;;;;;1.85;0.40;;;;;;;;;;5097660;28;20024;-85
2023/04/02 02:21:39;;;;;;;1.75;0.40;;;;;;;;;;5095496;28;20667;-84
2023/04/02 02:24:07;;;;;;;2.05;0.35;;;;;;;;;;5106927;28;20056;-85
2023/04/02 02:26:34;;;;;;;1.65;0.57;;;;;;;;;;5090221;28;20024;-83
2023/04/02 02:29:03;;;;;;;0.88;0.30;;;;;;;;;;5091679;28;20375;-84
2023/04/02 02:31:32;;;;;;;1.00;0.30;;;;;;;;;;5090104;28;20026;-86
2023/04/02 02:34:02;;;;;;;1.65;0.20;;;;;;;;;;5091830;28;20066;-84
2023/04/02 02:36:28;;;;;;;;;;;;;;;;;;5105131;28;20023;-82
2023/04/02 02:38:57;;;;;;;1.15;0.40;;;;;;;;;;5111362;28;20313;-84
2023/04/02 02:41:26;;;;;;;1.60;0.30;;;;;;;;;;5109191;28;20039;-84
2023/04/02 02:44:01;;;;;;;0.47;0.40;;;;;;;;;;5102756;28;20028;-87
2023/04/02 02:46:28;;;;;;;1.38;0.63;;;;;;;;;;5090113;28;20047;-86
2023/04/02 02:48:56;;;;;;;1.27;0.40;;;;;;;;;;5090606;28;20044;-86
2023/04/02 02:51:28;;;;;;;0.52;0.40;;;;;;;;;;5090278;28;20606;-87
2023/04/02 02:53:56;;;;;;;0.32;0.17;;;;;;;;;;5091654;28;20481;-87
2023/04/02 02:56:23;;;;;;;0.45;0.20;;;;;;;;;;5089633;28;20385;-87
2023/04/02 02:58:50;;;;;;;0.30;0.30;;;;;;;;;;5091673;28;20054;-84
2023/04/02 03:01:17;;;;;;;0.73;0.28;;;;;;;;;;5105609;28;20027;-84
2023/04/02 03:03:44;;;;;;;0.52;0.20;;;;;;;;;;5114980;28;20480;-85
2023/04/02 03:06:15;;;;;;;2.17;0.25;;;;;;;;;;5114066;28;20111;-85
2023/04/02 03:08:44;;;;;;;2.10;0.32;;;;;;;;;;5115549;28;20028;-86
2023/04/02 03:11:13;;;;;;;0.70;0.30;;;;;;;;;;5118984;28;20376;-85
2023/04/02 03:13:46;;;;;;;1.33;0.47;;;;;;;;;;5104438;28;20031;-85
2023/04/02 03:16:16;;;;;;;1.17;0.30;;;;;;;;;;5094800;28;20020;-76
2023/04/02 03:18:44;;;;;;;5.93;0.40;;;;;;;;;;5105153;28;20028;-85
2023/04/02 03:21:10;;;;;;;1.23;0.38;;;;;;;;;;5114722;28;20042;-86
2023/04/02 03:23:40;;;;;;;1.90;0.43;;;;;;;;;;5114810;28;20453;-88
2023/04/02 03:26:12;;;;;;;1.75;0.30;;;;;;;;;;5114818;28;20027;-84
2023/04/02 03:28:41;;;;;;;1.40;0.50;;;;;;;;;;5114436;28;20024;-84
2023/04/02 03:31:13;;;;;;;0.20;0.20;;;;;;;;;;5104760;28;20031;-83
2023/04/02 03:33:44;;;;;;;2.85;0.30;;;;;;;;;;5093957;28;20033;-87
2023/04/02 03:36:22;;;;;;;0.70;0.30;;;;;;;;;;5099398;28;20118;-83
2023/04/02 03:38:53;;;;;;;0.57;0.40;;;;;;;;;;5107618;28;20042;-86
2023/04/02 03:41:22;;;;;;;0.73;0.30;;;;;;;;;;5113490;28;20022;-84
2023/04/02 03:43:53;;;;;;;1.98;0.28;;;;;;;;;;5115302;28;20023;-85
2023/04/02 03:46:23;;;;;;;1.48;0.52;;;;;;;;;;5113445;28;20035;-85
2023/04/02 03:48:51;;;;;;;1.83;0.63;;;;;;;;;;5114833;28;20044;-85
2023/04/02 03:51:27;;;;;;;0.88;0.20;;;;;;;;;;5113940;28;20024;-83
2023/04/02 03:53:53;;;;;;;1.23;0.20;;;;;;;;;;5113752;28;20034;-85
2023/04/02 03:56:26;;;;;;;0.20;0.20;;;;;;;;;;5113266;28;20102;-83
2023/04/02 03:58:56;;;;;;;3.53;0.30;;;;;;;;;;5114966;28;20035;-85
2023/04/02 04:01:28;;;;;;;1.48;0.30;;;;;;;;;;5101584;28;20069;-84
2023/04/02 04:03:55;;;;;;;0.60;0.20;;;;;;;;;;5094141;28;20051;-83
2023/04/02 04:06:26;;;;;;;1.63;0.47;;;;;;;;;;5092580;28;20031;-82
2023/04/02 04:09:09;;;;;;;0.55;0.20;;;;;;;;;;5093383;28;20117;-84
2023/04/02 04:11:37;;;;;;;2.10;0.47;;;;;;;;;;5111940;28;20051;-83
2023/04/02 04:14:06;;;;;;;0.60;0.20;;;;;;;;;;5097863;28;20023;-83
2023/04/02 04:16:39;;;;;;;0.73;0.20;;;;;;;;;;5092606;28;20591;-84
2023/04/02 04:19:09;;;;;;;0.85;0.20;;;;;;;;;;5095849;28;20449;-83
2023/04/02 04:21:38;;;;;;;0.52;0.20;;;;;;;;;;5097534;28;20024;-84
2023/04/02 04:24:06;;;;;;;1.30;0.20;;;;;;;;;;5105073;28;20107;-85
2023/04/02 04:26:38;;;;;;;0.93;0.28;;;;;;;;;;5109731;28;20016;-83
2023/04/02 04:29:11;;;;;;;0.85;0.30;;;;;;;;;;5105093;28;20031;-84
2023/04/02 04:31:45;;;;;;;0.25;0.10;;;;;;;;;;5114397;28;20030;-81
2023/04/02 04:34:15;;;;;;;1.20;0.40;;;;;;;;;;5124179;28;20022;-82
2023/04/02 04:36:52;;;;;;;0.33;0.17;;;;;;;;;;5126522;28;20018;-79
2023/04/02 04:39:22;;;;;;;2.58;0.47;;;;;;;;;;5133378;28;20016;-77
2023/04/02 04:41:49;;;;;;;1.27;0.35;;;;;;;;;;5135162;28;20029;-80
2023/04/02 04:44:23;;;;;;;0.30;0.20;;;;;;;;;;5134167;28;20071;-72
2023/04/02 04:46:55;;;;;;;2.65;0.63;;;;;;;;;;5129885;28;20081;-84
2023/04/02 04:49:30;;;;;;;0.55;0.20;;;;;;;;;;5122538;28;20496;-85
2023/04/02 04:51:56;;;;;;;1.63;0.40;;;;;;;;;;5117652;28;20125;-84
2023/04/02 04:54:25;;;;;;;0.22;0.15;;;;;;;;;;5121878;28;20050;-84
2023/04/02 04:56:54;;;;;;;0.32;0.20;;;;;;;;;;5114866;28;20055;-83
2023/04/02 04:59:26;;;;;;;0.22;0.20;;;;;;;;;;5113249;28;20030;-84
2023/04/02 05:01:57;;;;;;;0.28;0.25;;;;;;;;;;5100002;28;20034;-85
2023/04/02 05:04:23;;;;;;;;;;;;;;;;;;5112995;28;20051;-85
2023/04/02 05:06:55;;;;;;;0.70;0.25;;;;;;;;;;5112664;28;20008;-86
2023/04/02 05:09:29;;;;;;;0.70;0.20;;;;;;;;;;5103689;28;20389;-84
2023/04/02 05:12:02;;;;;;;0.32;0.25;;;;;;;;;;5092137;28;20451;-85
2023/04/02 05:14:40;;;;;;;0.80;0.25;;;;;;;;;;5111209;28;20055;-85
2023/04/02 05:17:06;;;;;;;1.15;0.35;;;;;;;;;;5119232;28;20030;-83
2023/04/02 05:19:36;;;;;;;0.75;0.32;;;;;;;;;;5094239;28;20032;-83
2023/04/02 05:22:08;;;;;;;0.40;0.35;;;;;;;;;;5111982;28;20128;-87
2023/04/02 05:24:42;;;;;;;0.98;0.38;;;;;;;;;;5112526;28;20042;-84
2023/04/02 05:27:31;;;;;;;0.93;0.35;;;;;;;;;;5092429;28;20384;-85
2023/04/02 05:30:02;;;;;;;3.20;0.30;;;;;;;;;;5092481;28;20055;-85
2023/04/02 05:32:31;;;;;;;0.30;0.20;;;;;;;;;;5090419;28;20028;-84
2023/04/02 05:34:57;;;;;;;1.67;0.50;;;;;;;;;;5092534;28;20461;-84
2023/04/02 05:37:26;;;;;;;0.30;0.28;;;;;;;;;;5107628;28;20038;-84
2023/04/02 05:39:55;;;;;;;2.35;0.60;;;;;;;;;;5112783;28;20031;-85
2023/04/02 05:42:26;;;;;;;0.90;0.22;;;;;;;;;;5111397;28;20019;-89
2023/04/02 05:45:06;;;;;;;1.48;0.40;;;;;;;;;;5112495;28;20077;-84
2023/04/02 05:47:34;;;;;;;0.68;0.20;;;;;;;;;;5091114;28;20031;-89
2023/04/02 05:50:06;;;;;;;0.60;0.40;;;;;;;;;;5091734;28;20040;-86
2023/04/02 05:52:35;;;;;;;2.13;0.38;;;;;;;;;;5090637;28;20028;-85
2023/04/02 05:55:11;;;;;;;1.95;0.40;;;;;;;;;;5106085;28;20468;-85
2023/04/02 05:57:42;;;;;;;0.28;0.25;;;;;;;;;;5111294;28;20024;-84
2023/04/02 06:00:13;;;;;;;0.98;0.30;;;;;;;;;;5112157;28;20042;-85
2023/04/02 06:02:41;;;;;;;0.30;0.30;;;;;;;;;;5111387;28;20020;-82
2023/04/02 06:05:19;;;;;;;0.60;0.60;;;;;;;;;;5112561;28;20024;-85
2023/04/02 06:07:54;;;;;;;0.73;0.35;;;;;;;;;;5112007;28;20111;-84
2023/04/02 06:10:23;;;;;;;1.42;0.55;;;;;;;;;;5110072;28;20039;-83
2023/04/02 06:12:53;;;;;;;1.17;0.60;;;;;;;;;;5092145;28;20020;-84
2023/04/02 06:15:20;;;;;;;1.10;0.43;;;;;;;;;;5090792;28;20498;-84
2023/04/02 06:17:47;;;;;;;1.80;0.50;;;;;;;;;;5092136;28;20419;-82
2023/04/02 06:20:17;;;;;;;2.63;0.70;;;;;;;;;;5091306;28;20495;-75
2023/04/02 06:22:44;;;;;;;1.27;0.50;;;;;;;;;;5092323;28;20385;-83
2023/04/02 06:25:19;;;;;;;1.13;0.70;;;;;;;;;;5096637;28;20093;-83
2023/04/02 06:27:45;;;;;;;1.42;0.50;;;;;;;;;;5092450;28;20036;-84
2023/04/02 06:30:24;;;;;;;1.80;0.63;;;;;;;;;;5111379;28;20029;-78
2023/04/02 06:32:50;;;;;;;2.20;0.60;;;;;;;;;;5112097;28;20026;-84
2023/04/02 06:35:16;;;;;;;1.30;0.85;;;;;;;;;;5099515;28;20028;-76
2023/04/02 06:37:44;;;;;;;0.73;0.50;;;;;;;;;;5092716;28;20028;-83
2023/04/02 06:40:29;;;;;;;1.33;0.55;;;;;;;;;;5097764;28;20479;-82
2023/04/02 06:42:58;;;;;;;0.43;0.43;;;;;;;;;;5103269;28;20008;-81
2023/04/02 06:45:28;;;;;;;0.80;0.70;;;;;;;;;;5094224;28;20020;-84
2023/04/02 06:47:56;;;;;;;0.52;0.50;;;;;;;;;;5112501;28;20372;-85
2023/04/02 06:50:25;;;;;;;1.33;0.55;;;;;;;;;;5115056;28;20031;-90
2023/04/02 06:52:53;;;;;;;1.65;0.50;;;;;;;;;;5104495;28;20491;-83
2023/04/02 06:55:31;;;;;;;1.35;0.82;;;;;;;;;;5105039;28;20537;-84
2023/04/02 06:57:57;;;;;;;0.70;0.50;;;;;;;;;;5102792;28;20031;-79
2023/04/02 07:00:43;;;;;;;0.47;0.43;;;;;;;;;;5100608;28;20075;-77
2023/04/02 07:03:29;;;;;;;1.95;0.68;;;;;;;;;;5107204;28;20027;-83
2023/04/02 07:05:55;;;;;;;2.03;0.68;;;;;;;;;;5103208;28;20040;-78
2023/04/02 07:08:21;;;;;;;0.80;0.60;;;;;;;;;;5093329;28;20028;-80
2023/04/02 07:10:47;;;;;;;0.80;0.40;;;;;;;;;;5094328;28;20040;-86
2023/04/02 07:13:15;;;;;;;1.83;0.80;;;;;;;;;;5102928;28;20027;-74
2023/04/02 07:15:41;;;;;;;1.50;0.75;;;;;;;;;;5110778;28;20098;-85
2023/04/02 07:18:13;;;;;;;0.70;0.47;;;;;;;;;;5112339;28;20026;-79
2023/04/02 07:20:40;;;;;;;1.50;0.50;;;;;;;;;;5106925;28;20506;-85
2023/04/02 07:23:07;;;;;;;0.47;0.45;;;;;;;;;;5102095;28;20027;-81
2023/04/02 07:25:33;;;;;;;3.08;0.68;;;;;;;;;;5113829;28;20028;-87
2023/04/02 07:28:00;;;;;;;3.95;1.08;;;;;;;;;;5095219;28;20030;-84
2023/04/02 07:30:26;;;;;;;2.70;1.70;;;;;;;;;;5102422;28;20020;-85
2023/04/02 07:32:52;;;;;;;2.90;1.90;;;;;;;;;;5102843;28;20020;-86
2023/04/02 07:35:18;;;;;;;3.00;1.23;;;;;;;;;;5110552;28;20491;-77
2023/04/02 07:37:44;;;;;;;1.10;0.75;;;;;;;;;;5095022;28;20036;-83
2023/04/02 07:40:22;;;;;;;2.95;1.00;;;;;;;;;;5094293;28;20111;-85
2023/04/02 07:42:48;;;;;;;3.83;0.90;;;;;;;;;;5094772;28;20050;-85
2023/04/02 07:45:17;;;;;;;0.80;0.60;;;;;;;;;;5093588;28;20024;-75
2023/04/02 07:47:44;;;;;;;1.00;0.50;;;;;;;;;;5094000;28;20078;-82
2023/04/02 07:50:10;;;;;;;0.70;0.43;;;;;;;;;;5092716;28;20036;-83
2023/04/02 07:52:42;;;;;;;1.83;0.68;;;;;;;;;;5101742;28;20098;-82
2023/04/02 07:55:11;;;;;;;0.77;0.77;;;;;;;;;;5114188;28;20024;-82
2023/04/02 07:57:37;;;;;;;1.60;0.60;;;;;;;;;;5095593;28;20020;-79
2023/04/02 08:00:06;;;;;;;5.00;2.63;;;;;;;;;;5093923;28;20039;-79
2023/04/02 08:02:32;;;;;;;1.55;1.00;;;;;;;;;;5096001;28;20153;-78
2023/04/02 08:04:58;;;;;;;1.50;0.60;;;;;;;;;;5114591;28;20055;-79
2023/04/02 08:07:24;;;;;;;1.05;0.80;;;;;;;;;;5095782;28;20024;-81
2023/04/02 08:09:50;;;;;;;1.52;0.93;;;;;;;;;;5093359;28;20038;-85
2023/04/02 08:12:16;;;;;;;1.33;1.20;;;;;;;;;;5092942;28;20348;-74
2023/04/02 08:14:42;;;;;;;2.05;1.05;;;;;;;;;;5113718;28;20027;-85
2023/04/02 08:17:08;;;;;;;2.95;0.80;;;;;;;;;;5099835;28;20487;-87
2023/04/02 08:19:34;;;;;;;2.25;1.25;;;;;;;;;;5111390;28;20035;-84
2023/04/02 08:22:00;;;;;;;1.70;0.80;;;;;;;;;;5101234;28;20032;-80
2023/04/02 08:24:26;;;;;;;1.80;0.70;;;;;;;;;;5113162;28;20380;-79
2023/04/02 08:26:52;;;;;;;1.67;0.80;;;;;;;;;;5105507;28;20039;-82
2023/04/02 08:29:19;;;;;;;1.58;0.80;;;;;;;;;;5096756;28;20036;-74
2023/04/02 08:31:45;;;;;;;1.25;0.90;;;;;;;;;;5092723;28;20035;-77
2023/04/02 08:34:11;;;;;;;2.30;0.90;;;;;;;;;;5093472;28;20138;-75
2023/04/02 08:36:38;;;;;;;2.50;0.60;;;;;;;;;;5092605;28;20028;-81
2023/04/02 08:39:04;;;;;;;2.67;0.85;;;;;;;;;;5093106;28;20124;-82
2023/04/02 08:41:35;;;;;;;1.52;0.60;;;;;;;;;;5091832;28;20020;-79
2023/04/02 08:44:07;;;;;;;1.35;0.63;;;;;;;;;;5092114;28;20027;-78
2023/04/02 08:46:40;;;;;;;0.68;0.50;;;;;;;;;;5091350;28;20028;-88
2023/04/02 08:49:14;;;;;;;1.50;0.70;;;;;;;;;;5089871;28;20048;-78
2023/04/02 08:51:40;;;;;;;1.33;0.60;;;;;;;;;;5091578;28;20024;-76
2023/04/02 08:54:11;;;;;;;4.72;0.77;;;;;;;;;;5092665;28;20016;-82
2023/04/02 08:56:44;;;;;;;1.58;0.60;;;;;;;;;;5091121;28;20055;-81
2023/04/02 08:59:29;;;;;;;0.63;0.50;;;;;;;;;;5094833;28;20051;-82
2023/04/02 09:02:14;;;;;;;1.85;0.60;;;;;;;;;;5091988;28;20046;-82
2023/04/02 09:04:40;;;;;;;1.90;0.63;;;;;;;;;;5091353;28;20043;-83
2023/04/02 09:07:11;;;;;;;0.93;0.60;;;;;;;;;;5091591;28;20077;-81
2023/04/02 09:09:37;;;;;;;2.35;1.00;;;;;;;;;;5091610;28;20032;-79
2023/04/02 09:12:03;;;;;;;1.60;0.85;;;;;;;;;;5091408;28;20409;-77
2023/04/02 09:14:41;;;;;;;1.58;0.50;;;;;;;;;;5110369;28;20410;-82
2023/04/02 09:17:15;;;;;;;1.45;0.82;;;;;;;;;;5097720;28;20021;-76
2023/04/02 09:19:43;;;;;;;2.45;0.90;;;;;;;;;;5105547;28;20032;-80
2023/04/02 09:22:17;;;;;;;0.95;0.93;;;;;;;;;;5090922;28;20520;-79
2023/04/02 09:24:43;;;;;;;4.35;2.30;;;;;;;;;;5116263;28;20035;-80
2023/04/02 09:27:20;;;;;;;1.98;0.90;;;;;;;;;;5097498;28;20020;-81
2023/04/02 09:29:48;;;;;;;1.50;0.63;;;;;;;;;;5091816;28;20369;-80
2023/04/02 09:32:34;;;;;;;2.28;0.63;;;;;;;;;;5091082;28;20095;-75
2023/04/02 09:35:08;;;;;;;1.65;0.90;;;;;;;;;;5091117;28;20029;-76
2023/04/02 09:37:34;;;;;;;2.75;0.90;;;;;;;;;;5090502;28;20024;-78
2023/04/02 09:40:22;;;;;;;1.08;0.73;;;;;;;;;;5091801;28;20020;-77
2023/04/02 09:42:48;;;;;;;1.45;0.80;;;;;;;;;;5091615;28;20526;-80
2023/04/02 09:45:21;;;;;;;2.00;1.27;;;;;;;;;;5091430;28;20028;-73
2023/04/02 09:47:48;;;;;;;0.95;0.75;;;;;;;;;;5110166;28;20384;-79
2023/04/02 09:50:14;;;;;;;2.88;0.60;;;;;;;;;;5090421;28;20032;-73
2023/04/02 09:52:40;;;;;;;1.02;0.80;;;;;;;;;;5090607;28;20052;-80
2023/04/02 09:55:24;;;;;;;0.45;0.40;;;;;;;;;;5091541;28;20055;-78
2023/04/02 09:57:50;;;;;;;1.35;0.63;;;;;;;;;;5090736;28;20052;-81
2023/04/02 10:00:25;;;;;;;2.42;0.90;;;;;;;;;;5090388;28;20058;-75
2023/04/02 10:03:06;;;;;;;1.02;0.50;;;;;;;;;;5091290;28;20032;-82
2023/04/02 10:05:33;;;;;;;1.17;0.70;;;;;;;;;;5070751;28;20039;-82
2023/04/02 10:08:06;;;;;;;1.55;0.60;;;;;;;;;;5094735;28;20481;-82
2023/04/02 10:10:47;;;;;;;0.90;0.50;;;;;;;;;;5090064;28;20092;-80
2023/04/02 10:13:16;;;;;;;0.70;0.50;;;;;;;;;;5099035;28;20443;-77
2023/04/02 10:16:01;;;;;;;0.52;0.50;;;;;;;;;;5109345;28;20438;-87
2023/04/02 10:18:27;;;;;;;0.98;0.50;;;;;;;;;;5110750;28;20383;-81
2023/04/02 10:20:54;;;;;;;0.45;0.35;;;;;;;;;;5111589;28;20024;-81
2023/04/02 10:23:22;;;;;;;1.30;0.50;;;;;;;;;;5102736;28;20461;-78
2023/04/02 10:26:01;;;;;;;0.60;0.40;;;;;;;;;;5090821;28;20016;-75
2023/04/02 10:28:37;;;;;;;0.63;0.30;;;;;;;;;;5111179;28;20380;-83
2023/04/02 10:31:24;;;;;;;0.73;0.50;;;;;;;;;;5091068;28;20132;-81
2023/04/02 10:33:51;;;;;;;0.40;0.40;;;;;;;;;;5091103;28;20028;-80
2023/04/02 10:36:23;;;;;;;1.95;0.57;;;;;;;;;;5089865;28;20027;-74
2023/04/02 10:39:01;;;;;;;0.60;0.40;;;;;;;;;;5091537;28;20020;-82
2023/04/02 10:41:33;;;;;;;1.45;0.70;;;;;;;;;;5090146;28;20051;-82
2023/04/02 10:43:59;;;;;;;0.70;0.43;;;;;;;;;;5091025;28;20034;-80
2023/04/02 10:46:48;;;;;;;0.60;0.38;;;;;;;;;;5095174;28;20020;-81
2023/04/02 10:49:26;;;;;;;0.70;0.60;;;;;;;;;;5061949;28;20048;-77
2023/04/02 10:52:15;;;;;;;1.08;0.50;;;;;;;;;;5091423;28;20023;-85
2023/04/02 10:54:45;;;;;;;1.40;0.60;;;;;;;;;;5091446;28;20028;-83
2023/04/02 10:57:21;;;;;;;0.80;0.60;;;;;;;;;;5091088;28;20031;-80
2023/04/02 10:59:51;;;;;;;3.40;0.50;;;;;;;;;;5089256;28;20055;-82
2023/04/02 11:02:28;;;;;;;1.42;0.50;;;;;;;;;;5089195;28;20362;-76
2023/04/02 11:04:57;;;;;;;1.15;0.60;;;;;;;;;;5091097;28;20024;-82
2023/04/02 11:07:26;;;;;;;1.13;0.50;;;;;;;;;;5089928;28;20028;-83
2023/04/02 11:09:55;;;;;;;1.55;0.52;;;;;;;;;;5091505;28;20112;-83
2023/04/02 11:12:24;;;;;;;1.45;0.70;;;;;;;;;;5089805;28;20027;-83
2023/04/02 11:14:51;;;;;;;0.77;0.70;;;;;;;;;;5091204;28;20020;-83
2023/04/02 11:17:19;;;;;;;0.77;0.50;;;;;;;;;;5070553;28;20055;-74
2023/04/02 11:19:45;;;;;;;0.90;0.55;;;;;;;;;;5070990;28;20111;-82
2023/04/02 11:22:19;;;;;;;0.60;0.50;;;;;;;;;;5070030;28;20017;-84
2023/04/02 11:24:47;;;;;;;0.73;0.45;;;;;;;;;;5091732;28;20095;-84
2023/04/02 11:27:17;;;;;;;0.50;0.40;;;;;;;;;;5094111;28;20028;-78
2023/04/02 11:29:48;;;;;;;1.30;0.60;;;;;;;;;;5094285;28;20036;-82
2023/04/02 11:32:14;;;;;;;2.00;0.40;;;;;;;;;;5093630;28;20035;-75
2023/04/02 11:34:40;;;;;;;2.25;0.40;;;;;;;;;;5094174;28;20090;-82
2023/04/02 11:37:10;;;;;;;0.40;0.40;;;;;;;;;;5094232;28;20453;-84
2023/04/02 11:39:54;;;;;;;0.95;0.50;;;;;;;;;;5094442;28;20627;-84
2023/04/02 11:42:26;;;;;;;1.45;0.32;;;;;;;;;;5092890;28;20036;-82
2023/04/02 11:44:52;;;;;;;0.38;0.25;;;;;;;;;;5094448;28;20020;-83
2023/04/02 11:47:29;;;;;;;0.63;0.38;;;;;;;;;;5091142;28;20391;-81
2023/04/02 11:49:59;;;;;;;0.40;0.30;;;;;;;;;;5095284;28;20492;-81
2023/04/02 11:52:49;;;;;;;0.80;0.35;;;;;;;;;;5114101;28;20046;-86
2023/04/02 11:55:23;;;;;;;0.77;0.25;;;;;;;;;;5100733;28;20477;-80
2023/04/02 11:58:06;;;;;;;0.52;0.20;;;;;;;;;;5095916;28;20036;-84
2023/04/02 12:00:33;;;;;;;0.55;0.30;;;;;;;;;;5095346;28;20567;-86
2023/04/02 12:03:17;;;;;;;0.28;0.28;;;14.20;99.90;;;;;;5096250;28;20024;-88
2023/04/02 12:05:57;;;;;;;0.35;0.28;;;14.30;99.90;;;;;;5094010;28;20032;-78
2023/04/02 12:08:39;;;;;;;0.98;0.40;;;14.30;99.90;;;;;;5093117;28;20028;-76
2023/04/02 12:11:05;;;;;;;0.50;0.22;;;14.40;99.90;;;;;;5093668;28;20058;-78
2023/04/02 12:13:51;;;;;;;0.30;0.30;;;14.50;99.90;;;;;;5103311;28;20027;-76
2023/04/02 12:16:17;;;;;;;0.55;0.40;;;14.70;99.90;;;;;;5103879;27;20030;-83
2023/04/02 12:18:45;;;;;;;0.30;0.30;;;14.90;99.90;;;;;;5093755;28;20036;-76
2023/04/02 12:21:16;;;;;;;0.30;0.22;;;14.80;99.90;;;;;;5094228;28;20032;-81
2023/04/02 12:23:45;;;;;;;0.50;0.20;;;14.70;99.90;;;;;;5108364;28;20015;-84
2023/04/02 12:26:41;;;;;;;0.28;0.20;;;14.50;99.90;;;;;;5118245;28;20028;-79
2023/04/02 12:29:13;;;;;;;0.30;0.30;;;14.30;99.90;;;;;;5098876;28;20040;-78
2023/04/02 12:31:44;;;;;;;0.30;0.30;;;14.20;99.90;;;;;;5112794;28;20027;-79
2023/04/02 12:34:19;;;;;;;0.52;0.52;;;14.00;99.90;;;;;;5113804;28;20020;-79
2023/04/02 12:37:18;;;;;;;0.70;0.35;;;13.90;99.90;;;;;;5115973;28;20063;-79
2023/04/02 12:39:54;;;;;;;0.75;0.20;;;13.80;99.90;;;;;;5030617;28;20045;-80
2023/04/02 12:42:28;;;;;;;0.50;0.47;;;13.70;99.90;;;;;;5029580;28;20025;-81
2023/04/02 12:44:54;;;;;;;0.30;0.30;;;13.50;99.90;;;;;;5030726;28;20040;-82
2023/04/02 12:47:20;;;;;;;0.25;0.20;;;13.40;99.90;;;;;;5026907;28;20437;-80
2023/04/02 12:49:46;;;;;;;0.30;0.30;;;13.30;99.90;;;;;;5032174;28;20053;-81
2023/04/02 12:52:15;;;;;;;0.38;0.32;;;13.30;99.90;;;;;;5035508;28;20056;-80
2023/04/02 12:54:51;;;;;;;0.88;0.38;;;13.40;99.90;;;;;;5049835;28;20083;-84
2023/04/02 12:57:25;;;;;;;0.50;0.50;;;13.30;99.90;;;;;;5049645;28;20533;-73
2023/04/02 12:59:59;;;;;;;0.52;0.20;;;13.40;99.90;;;;;;5050564;28;20079;-81
2023/04/02 13:02:29;;;;;;;0.60;0.40;;;13.50;99.90;;;;;;5048791;28;20036;-78
2023/04/02 13:05:00;;;;;;;0.32;0.32;;;13.50;99.90;;;;;;5038052;28;20029;-80
2023/04/02 13:07:28;;;;;;;0.38;0.28;;;13.50;99.90;;;;;;5027777;28;20419;-77
2023/04/02 13:09:56;;;;;;;0.95;0.22;;;13.60;99.90;;;;;;5027296;28;20033;-79
2023/04/02 13:12:25;;;;;;;0.95;0.80;;;13.70;99.90;;;;;;5029710;28;20025;-85
2023/04/02 13:14:55;;;;;;;1.40;0.80;;;13.90;99.90;;;;;;5031343;28;20034;-85
2023/04/02 13:17:47;;;;;;;0.77;0.77;;;13.90;99.90;;;;;;5101210;28;20040;-78
2023/04/02 13:20:36;;;;;;;1.05;0.80;;;13.80;99.90;;;;;;5112556;28;20061;-77
2023/04/02 13:23:30;;;;;;;2.42;1.20;;;13.60;99.90;;;;;;5106360;28;20460;-80
2023/04/02 13:26:14;;;;;;;1.85;1.10;;;13.50;99.90;;;;;;5092371;28;20032;-84
2023/04/02 13:28:40;;;;;;;1.05;0.95;;;13.20;99.90;;;;;;5091174;28;20032;-77
2023/04/02 13:31:13;;;;;;;1.58;0.80;;;13.00;99.90;;;;;;5091061;28;20050;-77
2023/04/02 13:33:39;;;;;;;0.85;0.85;;;12.80;99.90;;;;;;5102097;28;20028;-79
2023/04/02 13:36:05;;;;;;;3.35;1.10;;;12.80;99.90;;;;;;5110299;28;20034;-76
2023/04/02 13:38:30;;;;;;;1.45;1.00;;;12.70;99.90;;;;;;5098048;28;20035;-76
2023/04/02 13:40:56;;;;;;;1.50;0.90;;;12.50;99.90;;;;;;5090944;28;20461;-76
2023/04/02 13:43:22;;;;;;;2.15;1.50;;;12.30;99.90;;;;;;5090161;28;20055;-74
2023/04/02 13:45:53;;;;;;;1.77;1.10;;;12.00;99.90;;;;;;5090268;28;20052;-72
2023/04/02 13:48:18;;;;;;;1.10;1.00;;;11.60;99.90;;;;;;5089758;28;20508;-72
2023/04/02 13:50:45;;;;;;;1.10;0.90;;;11.30;99.90;;;;;;5090543;28;20032;-74
2023/04/02 13:53:28;;;;;;;2.10;1.17;;;11.20;99.90;;;;;;5090832;28;20024;-76
2023/04/02 13:55:53;;;;;;;1.50;1.40;;;11.10;99.90;;;;;;5108984;28;20066;-75
2023/04/02 13:58:19;;;;;;;1.38;1.27;;;11.00;99.90;;;;;;5101155;28;20473;-76
2023/04/02 14:00:46;;;;;;;1.65;0.98;;;10.80;99.90;;;;;;5090851;28;20111;-79
2023/04/02 14:03:20;;;;;;;1.33;1.27;;;10.70;99.90;;;;;;5091405;28;20020;-77
2023/04/02 14:06:03;;;;;;;1.38;1.27;;;10.70;99.90;;;;;;5091072;28;20081;-76
2023/04/02 14:08:58;;;;;;;1.30;1.20;;;10.60;99.90;;;;;;5089734;28;20048;-79
2023/04/02 14:11:39;;;;;;;1.73;1.30;;;10.50;99.90;;;;;;5104499;28;20471;-73
2023/04/02 14:14:31;;;;;;;2.35;1.73;;;10.50;99.90;;;;;;5091045;28;20044;-76
2023/04/02 14:17:18;;;;;;;1.45;1.35;;;10.40;99.90;;;;;;5090306;28;20031;-80
2023/04/02 14:20:11;;;;;;;1.50;1.40;;;10.30;99.90;;;;;;5091157;28;20028;-77
2023/04/02 14:22:55;;;;;;;1.55;1.45;;;10.20;99.90;;;;;;5092697;28;20554;-76
2023/04/02 14:25:36;;;;;;;4.55;1.55;;;10.10;99.90;;;;;;5095961;28;20026;-75
2023/04/02 14:28:10;;;;;;;2.13;2.00;;;10.00;99.90;;;;;;5091028;28;20024;-75
2023/04/02 14:31:06;;;;;;;2.83;1.55;;;10.00;99.90;;;;;;5090177;28;20376;-76
2023/04/02 14:33:40;;;;;;;1.33;1.10;;;10.00;99.90;;;;;;5090819;28;20016;-76
2023/04/02 14:36:06;;;;;;;3.35;1.60;;;9.80;99.90;;;;;;5091063;28;20028;-78
2023/04/02 14:38:45;;;;;;;1.63;1.50;;;9.60;99.90;;;;;;5090757;28;20032;-78
2023/04/02 14:41:30;;;;;;;1.83;1.20;;;9.50;99.90;;;;;;5090994;28;20056;-76
2023/04/02 14:44:04;;;;;;;1.67;1.52;;;9.50;99.90;;;;;;5091617;28;20028;-76
2023/04/02 14:46:32;;;;;;;1.50;1.40;;;9.50;99.90;;;;;;5089630;28;20028;-77